Time;durP1;ratioP1;P1;durP2;ratioP2;P2;SDS_P1;SDS_P2;PMS_P1;PMS_P2;Temp;Humidity;BMP_temperature;BMP_pressure;BME280_temperature;BME280_humidity;BME280_pressure;Samples;Min_cycle;Max_cycle;Signal;HPM_P1;HPM_P2
2021/03/08 00:00:18;;;;;;;49.60;26.10;;;;;;;3.23;66.15;95008.91;5094675;28;20486;-76
2021/03/08 00:02:45;;;;;;;51.43;24.83;;;;;;;3.22;65.98;95015.03;5094704;28;20528;-76
2021/03/08 00:05:12;;;;;;;51.30;21.00;;;;;;;3.17;66.17;95006.63;5094438;28;20822;-76
2021/03/08 00:07:41;;;;;;;31.90;19.43;;;;;;;3.14;65.84;95010.22;5094715;28;20458;-76
2021/03/08 00:10:09;;;;;;;39.22;20.55;;;;;;;3.17;65.76;95009.22;5042580;28;20444;-76
2021/03/08 00:12:35;;;;;;;37.73;21.33;;;;;;;3.12;65.80;95009.47;5042895;28;20685;-76
2021/03/08 00:15:01;;;;;;;32.55;19.00;;;;;;;3.11;65.76;95008.63;5094195;28;20447;-76
2021/03/08 00:17:28;;;;;;;35.37;18.67;;;;;;;3.10;66.96;95016.50;5094406;28;20197;-76
2021/03/08 00:19:54;;;;;;;34.23;18.87;;;;;;;3.08;66.60;95019.19;5094392;28;20803;-76
2021/03/08 00:22:21;;;;;;;36.97;18.20;;;;;;;3.05;67.80;95008.97;5094510;28;20466;-77
2021/03/08 00:24:48;;;;;;;26.57;16.80;;;;;;;3.06;67.21;95005.47;5094162;28;20288;-76
2021/03/08 00:27:14;;;;;;;32.87;16.70;;;;;;;3.01;67.27;95004.88;5094145;28;20438;-76
2021/03/08 00:29:41;;;;;;;32.93;16.07;;;;;;;2.99;67.17;94995.50;5094618;28;20473;-76
2021/03/08 00:32:08;;;;;;;30.40;16.80;;;;;;;3.00;67.04;94997.19;5041758;28;20493;-76
2021/03/08 00:34:35;;;;;;;36.67;16.58;;;;;;;2.97;67.10;94995.59;5094003;28;20734;-76
2021/03/08 00:37:02;;;;;;;38.58;17.85;;;;;;;2.95;67.50;94994.84;5094139;28;20201;-76
2021/03/08 00:39:28;;;;;;;44.97;20.48;;;;;;;2.91;67.83;94987.31;5093873;28;20208;-76
2021/03/08 00:41:56;;;;;;;35.05;17.55;;;;;;;2.85;67.84;94983.28;5093880;28;20709;-76
2021/03/08 00:44:23;;;;;;;33.72;17.40;;;;;;;2.85;68.64;94974.66;5093684;28;20198;-76
2021/03/08 00:46:49;;;;;;;35.67;18.60;;;;;;;2.85;68.71;94979.84;5093617;28;20672;-76
2021/03/08 00:49:15;;;;;;;36.35;18.90;;;;;;;2.86;68.64;94977.16;5041934;28;20325;-76
2021/03/08 00:51:42;;;;;;;29.02;17.02;;;;;;;2.86;68.95;94965.97;5093840;28;20201;-76
2021/03/08 00:54:08;;;;;;;38.17;17.55;;;;;;;2.88;68.89;94979.69;5093929;28;20205;-76
2021/03/08 00:56:34;;;;;;;31.27;17.20;;;;;;;2.90;68.82;94983.91;5093673;28;20734;-76
2021/03/08 00:59:02;;;;;;;34.60;18.73;;;;;;;2.89;69.10;94983.94;5093352;28;20447;-76
2021/03/08 01:01:28;;;;;;;37.63;19.17;;;;;;;2.87;69.44;94981.44;5093282;28;20855;-76
2021/03/08 01:03:54;;;;;;;43.08;19.50;;;;;;;2.85;69.54;94972.06;5093831;28;20951;-76
2021/03/08 01:06:21;;;;;;;36.88;19.15;;;;;;;2.86;69.39;94977.16;5093599;28;20254;-76
2021/03/08 01:08:47;;;;;;;36.88;17.70;;;;;;;2.82;69.72;94964.47;5093662;28;20201;-76
2021/03/08 01:11:14;;;;;;;39.95;17.58;;;;;;;2.81;70.78;94955.84;5093588;28;20194;-76
2021/03/08 01:13:40;;;;;;;31.08;18.42;;;;;;;2.82;70.61;94957.53;5041671;28;20556;-76
2021/03/08 01:16:07;;;;;;;33.17;17.40;;;;;;;2.88;70.91;94954.59;5093230;28;20205;-76
2021/03/08 01:18:34;;;;;;;32.40;18.77;;;;;;;2.91;70.30;94957.06;5093792;28;20500;-76
2021/03/08 01:21:00;;;;;;;29.30;16.37;;;;;;;2.89;70.54;94955.44;5093332;28;20501;-76
2021/03/08 01:23:26;;;;;;;31.60;17.17;;;;;;;2.91;70.36;94943.25;5093607;28;20464;-76
2021/03/08 01:25:53;;;;;;;34.38;17.60;;;;;;;2.91;70.28;94943.25;5093477;28;20551;-77
2021/03/08 01:28:19;;;;;;;28.20;17.60;;;;;;;2.88;70.53;94933.03;5092084;28;20205;-76
2021/03/08 01:30:46;;;;;;;34.00;19.15;;;;;;;2.90;70.35;94933.81;5093004;28;20477;-76
2021/03/08 01:33:13;;;;;;;37.85;19.80;;;;;;;2.89;70.02;94935.56;5093193;28;20241;-76
2021/03/08 01:35:40;;;;;;;34.80;18.83;;;;;;;2.91;69.75;94933.72;5093352;28;20225;-76
2021/03/08 01:38:07;;;;;;;35.90;18.80;;;;;;;2.90;69.96;94928.63;5093241;28;20197;-76
2021/03/08 01:40:36;;;;;;;37.28;19.00;;;;;;;2.87;69.68;94932.19;5093128;28;20229;-76
2021/03/08 01:43:03;;;;;;;30.45;17.58;;;;;;;2.89;70.11;94940.75;5093063;28;20714;-76
2021/03/08 01:45:29;;;;;;;38.17;20.75;;;;;;;2.89;70.39;94932.13;5093080;28;20413;-76
2021/03/08 01:47:56;;;;;;;26.45;16.60;;;;;;;2.87;70.35;94926.19;5093397;28;20576;-76
2021/03/08 01:50:30;;;;;;;33.73;17.50;;;;;;;2.89;70.29;94930.41;5092956;28;20550;-76
2021/03/08 01:52:57;;;;;;;28.63;16.40;;;;;;;2.88;69.96;94928.69;5057448;28;20971;-77
2021/03/08 01:55:24;;;;;;;25.45;15.88;;;;;;;2.86;70.24;94919.31;5092918;28;20197;-76
2021/03/08 01:57:51;;;;;;;26.17;14.53;;;;;;;2.85;70.31;94912.47;5093005;28;20197;-76
2021/03/08 02:00:20;;;;;;;27.42;17.30;;;;;;;2.85;70.28;94915.91;5093033;28;20443;-76
2021/03/08 02:02:47;;;;;;;27.83;15.98;;;;;;;2.85;70.30;94917.66;5093017;28;20774;-76
2021/03/08 02:05:15;;;;;;;25.77;15.68;;;;;;;2.87;70.33;94908.88;5092867;28;20198;-76
2021/03/08 02:07:43;;;;;;;34.03;15.98;;;;;;;2.81;69.74;94901.44;5092815;28;20205;-76
2021/03/08 02:10:11;;;;;;;32.30;18.38;;;;;;;2.85;69.81;94907.28;5092776;28;20201;-76
2021/03/08 02:12:59;;;;;;;34.73;16.30;;;;;;;2.87;70.11;94908.88;5092924;28;20657;-76
2021/03/08 02:15:35;;;;;;;28.07;16.50;;;;;;;2.82;69.67;94903.13;5093021;28;20503;-76
2021/03/08 02:18:06;;;;;;;28.10;16.00;;;;;;;2.77;69.94;94905.97;5040794;28;20446;-76
2021/03/08 02:20:58;;;;;;;29.83;16.83;;;;;;;2.73;70.19;94901.03;5041855;28;20235;-76
2021/03/08 02:24:02;;;;;;;27.92;16.02;;;;;;;2.73;69.92;94899.28;5093079;28;20447;-76
2021/03/08 02:26:38;;;;;;;31.00;17.40;;;;;;;2.75;69.71;94907.81;5092829;28;20201;-76
2021/03/08 02:29:56;;;;;;;32.35;16.45;;;;;;;2.72;69.90;94901.94;5092818;28;20447;-76
2021/03/08 02:32:27;;;;;;;28.73;17.55;;;;;;;2.73;69.10;94895.84;5092790;28;20588;-76
2021/03/08 02:35:01;;;;;;;41.08;19.40;;;;;;;2.72;69.08;94896.78;5092508;28;20198;-76
2021/03/08 02:37:30;;;;;;;40.50;19.13;;;;;;;2.64;68.92;94892.00;5092500;28;20227;-76
2021/03/08 02:40:03;;;;;;;32.10;17.92;;;;;;;2.59;69.04;94887.97;5095774;28;20251;-76
2021/03/08 02:42:35;;;;;;;46.95;17.52;;;;;;;2.62;68.93;94895.59;5045554;28;20215;-76
2021/03/08 02:45:02;;;;;;;34.03;18.80;;;;;;;2.58;68.97;94884.53;5096409;28;20208;-76
2021/03/08 02:47:32;;;;;;;33.78;17.17;;;;;;;2.59;68.96;94880.19;5096323;28;20243;-76
2021/03/08 02:50:02;;;;;;;29.85;19.00;;;;;;;2.55;69.07;94889.91;5096506;28;20186;-76
2021/03/08 02:52:33;;;;;;;29.35;17.65;;;;;;;2.48;68.92;94902.34;5096116;28;20212;-76
2021/03/08 02:55:02;;;;;;;29.42;17.10;;;;;;;2.43;69.20;94893.16;5096190;28;20193;-76
2021/03/08 02:57:34;;;;;;;29.73;16.90;;;;;;;2.40;69.29;94899.34;5096019;28;20208;-76
2021/03/08 03:00:04;;;;;;;32.92;20.50;;;;;;;2.38;69.46;94883.03;5096057;28;20212;-76
2021/03/08 03:02:32;;;;;;;28.25;18.88;;;;;;;2.39;69.42;94886.47;5096209;28;20312;-76
2021/03/08 03:04:59;;;;;;;32.75;20.73;;;;;;;2.41;69.21;94890.66;5096376;28;20197;-76
2021/03/08 03:07:28;;;;;;;34.90;20.70;;;;;;;2.40;69.31;94886.38;5095724;28;20189;-76
2021/03/08 03:09:54;;;;;;;35.33;19.15;;;;;;;2.38;69.35;94883.03;5095929;28;20208;-76
2021/03/08 03:12:21;;;;;;;43.33;20.42;;;;;;;2.37;69.14;94880.53;5095791;28;20572;-76
2021/03/08 03:14:49;;;;;;;45.35;21.85;;;;;;;2.37;69.00;94891.72;5095898;28;20209;-77
2021/03/08 03:17:18;;;;;;;33.20;20.95;;;;;;;2.34;69.18;94878.94;5095932;28;20202;-76
2021/03/08 03:19:51;;;;;;;33.72;17.65;;;;;;;2.34;69.31;94891.91;5096008;28;20212;-76
2021/03/08 03:22:21;;;;;;;29.88;19.77;;;;;;;2.30;69.33;94882.59;5095601;28;20738;-76
2021/03/08 03:24:50;;;;;;;37.72;17.98;;;;;;;2.33;68.87;94871.28;5096040;28;20201;-76
2021/03/08 03:27:17;;;;;;;33.00;17.90;;;;;;;2.33;68.76;94868.69;5096211;28;20563;-76
2021/03/08 03:29:45;;;;;;;28.77;17.42;;;;;;;2.30;69.04;94884.34;5096917;28;20201;-76
2021/03/08 03:32:14;;;;;;;26.30;17.30;;;;;;;2.28;69.08;94884.44;5095878;28;20327;-76
2021/03/08 03:34:41;;;;;;;41.70;19.55;;;;;;;2.23;69.71;94877.81;5096252;28;20208;-76
2021/03/08 03:37:09;;;;;;;30.15;18.65;;;;;;;2.20;69.80;94873.66;5096204;28;20202;-76
2021/03/08 03:39:36;;;;;;;34.55;19.58;;;;;;;2.20;70.06;94878.00;5096439;28;20205;-76
2021/03/08 03:42:03;;;;;;;35.50;18.85;;;;;;;2.13;70.31;94874.88;5097487;28;20231;-76
2021/03/08 03:44:30;;;;;;;33.53;18.38;;;;;;;2.10;70.68;94870.72;5063093;28;20204;-79
2021/03/08 03:46:57;;;;;;;36.35;20.17;;;;;;;2.11;70.62;94877.56;5096775;28;20201;-77
2021/03/08 03:49:23;;;;;;;28.80;16.95;;;;;;;2.05;70.95;94879.63;5095995;28;20197;-77
2021/03/08 03:51:50;;;;;;;34.78;17.75;;;;;;;2.02;71.35;94880.59;5097949;28;20205;-76
2021/03/08 03:54:17;;;;;;;32.15;17.52;;;;;;;2.00;71.87;94876.44;5102276;28;20286;-76
2021/03/08 03:56:51;;;;;;;34.58;18.65;;;;;;;1.98;72.01;94873.09;5102922;28;20562;-76
2021/03/08 03:59:22;;;;;;;25.58;17.25;;;;;;;2.00;71.92;94882.44;5096753;28;20204;-76
2021/03/08 04:01:54;;;;;;;35.60;19.30;;;;;;;1.98;72.35;94878.25;5097280;28;20289;-77
2021/03/08 04:04:26;;;;;;;29.67;17.27;;;;;;;1.96;72.00;94870.56;5097774;28;20554;-77
2021/03/08 04:06:53;;;;;;;29.70;16.98;;;;;;;1.99;71.96;94872.16;5096958;28;20205;-77
2021/03/08 04:09:22;;;;;;;34.50;18.80;;;;;;;2.01;72.24;94872.94;5044907;28;20205;-77
2021/03/08 04:11:54;;;;;;;38.92;19.42;;;;;;;1.95;71.76;94868.91;5097450;28;20201;-76
2021/03/08 04:14:23;;;;;;;33.70;19.05;;;;;;;1.90;71.90;94860.56;5097950;28;20212;-77
2021/03/08 04:16:51;;;;;;;39.42;21.08;;;;;;;1.95;71.91;94871.50;5097663;28;20204;-76
2021/03/08 04:19:21;;;;;;;27.83;17.13;;;;;;;1.97;71.92;94876.59;5095359;28;20209;-76
2021/03/08 04:21:49;;;;;;;34.22;18.02;;;;;;;1.97;71.76;94868.81;5094807;28;20225;-76
2021/03/08 04:24:18;;;;;;;32.72;17.55;;;;;;;1.97;71.34;94877.44;5042478;28;20197;-77
2021/03/08 04:26:48;;;;;;;29.33;17.45;;;;;;;1.91;71.35;94871.75;5094581;28;20201;-76
2021/03/08 04:29:17;;;;;;;41.75;18.08;;;;;;;1.92;71.58;94873.41;5094658;28;20225;-77
2021/03/08 04:31:44;;;;;;;30.67;17.77;;;;;;;1.90;71.91;94870.06;5094658;28;20241;-77
2021/03/08 04:34:12;;;;;;;26.00;17.95;;;;;;;1.87;71.92;94871.06;5094092;28;20225;-77
2021/03/08 04:36:40;;;;;;;30.10;18.05;;;;;;;1.89;71.66;94873.56;5094777;28;20211;-77
2021/03/08 04:39:09;;;;;;;27.85;17.50;;;;;;;1.89;71.69;94874.41;5094393;28;20199;-77
2021/03/08 04:41:36;;;;;;;31.15;17.80;;;;;;;1.84;71.71;94874.66;5094369;28;20274;-76
2021/03/08 04:44:07;;;;;;;30.33;17.73;;;;;;;1.79;71.24;94884.41;5094416;28;20208;-77
2021/03/08 04:46:34;;;;;;;39.58;21.25;;;;;;;1.67;71.47;94879.81;5044199;28;20210;-77
2021/03/08 04:49:01;;;;;;;42.83;20.83;;;;;;;1.54;71.88;94886.53;5094331;28;20205;-77
2021/03/08 04:51:30;;;;;;;46.50;23.05;;;;;;;1.36;72.32;94880.50;5094167;28;20202;-76
2021/03/08 04:53:59;;;;;;;67.90;23.40;;;;;;;1.12;73.91;94892.88;5093809;28;20605;-77
2021/03/08 04:56:28;;;;;;;52.10;25.88;;;;;;;0.98;74.40;94884.97;5093830;28;20205;-77
2021/03/08 04:58:55;;;;;;;58.47;28.23;;;;;;;1.05;74.53;94888.91;5093544;28;20201;-76
2021/03/08 05:01:24;;;;;;;48.42;23.85;;;;;;;1.04;75.24;94889.84;5093538;28;20225;-77
2021/03/08 05:03:53;;;;;;;46.30;24.00;;;;;;;1.11;75.17;94893.78;5093961;28;20201;-77
2021/03/08 05:06:19;;;;;;;53.70;22.55;;;;;;;1.20;74.93;94892.53;5093433;28;20197;-77
2021/03/08 05:08:47;;;;;;;45.42;20.63;;;;;;;1.28;74.66;94899.91;5093315;28;20198;-77
2021/03/08 05:11:14;;;;;;;38.13;21.83;;;;;;;1.32;74.68;94901.44;5093696;28;20295;-77
2021/03/08 05:13:42;;;;;;;42.85;20.52;;;;;;;1.41;74.30;94894.03;5093752;28;20213;-77
2021/03/08 05:16:10;;;;;;;47.83;22.98;;;;;;;1.44;74.33;94895.63;5094213;28;20560;-77
2021/03/08 05:18:39;;;;;;;45.65;24.75;;;;;;;1.56;74.17;94887.28;5093720;28;20197;-76
2021/03/08 05:21:08;;;;;;;40.13;23.10;;;;;;;1.70;73.83;94884.84;5093810;28;20228;-77
2021/03/08 05:23:34;;;;;;;55.42;26.25;;;;;;;1.80;73.18;94886.06;5094078;28;20292;-76
2021/03/08 05:26:02;;;;;;;49.70;23.67;;;;;;;1.90;73.35;94883.84;5094307;28;20201;-76
2021/03/08 05:28:31;;;;;;;65.45;24.27;;;;;;;2.05;73.13;94888.25;5042119;28;20209;-76
2021/03/08 05:31:00;;;;;;;33.90;19.85;;;;;;;2.25;72.68;94882.00;5042465;28;20296;-76
2021/03/08 05:33:29;;;;;;;34.22;18.92;;;;;;;2.59;71.22;94864.66;5093475;28;20278;-76
2021/03/08 05:35:58;;;;;;;39.63;18.30;;;;;;;3.18;69.42;94868.31;5093376;28;20208;-75
2021/03/08 05:38:27;;;;;;;30.50;18.17;;;;;;;3.79;67.56;94865.63;5093525;28;20197;-79
2021/03/08 05:41:03;;;;;;;28.97;18.00;;;;;;;4.51;65.67;94863.88;5094150;28;20885;-76
2021/03/08 05:43:33;;;;;;;29.60;16.30;;;;;;;5.15;63.11;94872.84;5094412;28;20439;-76
2021/03/08 05:46:06;;;;;;;34.57;15.53;;;;;;;5.80;60.95;94868.56;5093487;28;20449;-77
2021/03/08 05:48:58;;;;;;;30.50;19.10;;;;;;;6.36;57.75;94870.91;5093757;28;20450;-77
2021/03/08 05:52:06;;;;;;;37.50;20.80;;;;;;;6.85;56.21;94881.38;5093924;28;20450;-77
2021/03/08 05:55:13;;;;;;;47.57;25.27;;;;;;;6.93;55.70;94883.41;5011805;28;20582;-76
2021/03/08 05:57:49;;;;;;;43.70;24.30;;;;;;;7.08;55.07;94888.41;5011564;28;20853;-77
2021/03/08 06:00:26;;;;;;;57.63;25.60;;;;;;;7.36;54.17;94887.25;5012000;28;20943;-76
2021/03/08 06:03:09;;;;;;;48.67;28.50;;;;;;;7.67;53.32;94890.25;5011812;28;20442;-77
2021/03/08 06:06:08;;;;;;;54.53;28.20;;;;;;;7.99;52.24;94878.25;5011724;28;20447;-76
2021/03/08 06:08:55;;;;;;;93.67;42.57;;;;;;;8.47;53.18;94893.81;4972561;28;20453;-77
2021/03/08 06:11:24;;;;;;;41.20;25.00;;;;;;;10.05;60.03;94885.53;4972773;28;20445;-79
2021/03/08 06:13:57;;;;;;;40.40;27.80;;;;;;;10.63;46.37;94890.31;4973990;28;20900;-78
2021/03/08 06:16:27;;;;;;;37.60;22.07;;;;;;;10.31;45.54;94895.66;4975200;28;20451;-77
2021/03/08 06:18:55;;;;;;;39.33;23.23;;;;;;;9.21;47.60;94886.28;4976416;28;20452;-77
2021/03/08 06:21:22;;;;;;;40.33;24.03;;;;;;;8.85;48.83;94892.63;4976161;28;20524;-82
2021/03/08 06:23:49;;;;;;;41.30;27.10;;;;;;;8.54;50.95;94889.78;4977219;28;20837;-76
2021/03/08 06:26:16;;;;;;;40.00;26.30;;;;;;;8.45;51.00;94894.88;4976164;28;20480;-76
2021/03/08 06:28:43;;;;;;;43.10;25.47;;;;;;;8.49;50.96;94893.69;4976374;28;20452;-78
2021/03/08 06:31:10;;;;;;;42.13;24.10;;;;;;;8.47;51.08;94893.81;5034311;28;20455;-77
2021/03/08 06:33:37;;;;;;;48.87;26.53;;;;;;;8.25;51.31;94898.97;5023056;28;20491;-77
2021/03/08 06:36:05;;;;;;;48.23;25.00;;;;;;;8.14;51.63;94891.94;5023251;28;20485;-76
2021/03/08 06:38:32;;;;;;;50.80;25.17;;;;;;;7.64;53.24;94890.47;5034671;28;20955;-76
2021/03/08 06:41:00;;;;;;;43.83;25.90;;;;;;;7.52;53.58;94888.75;5034591;28;21025;-78
2021/03/08 06:43:27;;;;;;;54.30;30.97;;;;;;;7.51;53.53;94893.13;5034448;28;20529;-78
2021/03/08 06:45:55;;;;;;;47.20;28.80;;;;;;;7.57;54.37;94891.88;5063774;28;20448;-79
2021/03/08 06:48:22;;;;;;;51.17;28.37;;;;;;;7.71;53.80;94883.84;5084361;28;20484;-80
2021/03/08 06:51:11;;;;;;;48.53;27.97;;;;;;;8.11;53.40;94883.50;5096076;28;20500;-82
2021/03/08 06:53:38;;;;;;;47.40;27.27;;;;;;;8.25;51.85;94889.34;5083297;28;20968;-79
2021/03/08 06:56:14;;;;;;;47.93;27.97;;;;;;;8.35;52.12;94897.34;5082755;28;20542;-79
2021/03/08 06:58:41;;;;;;;50.33;28.97;;;;;;;8.42;52.81;94895.13;5097230;28;20454;-80
2021/03/08 07:01:31;;;;;;;47.33;28.70;;;;;;;8.72;51.85;94895.38;5098154;28;21009;-82
2021/03/08 07:03:59;;;;;;;48.07;28.17;;;;;;;8.85;51.04;94885.63;5088559;28;20460;-79
2021/03/08 07:06:25;;;;;;;50.33;28.40;;;;;;;8.53;51.32;94882.06;5082820;28;20459;-79
2021/03/08 07:08:52;;;;;;;43.37;28.80;;;;;;;8.59;51.99;94892.88;5090493;28;20970;-80
2021/03/08 07:11:21;;;;;;;58.23;29.13;;;;;;;8.61;52.29;94890.13;5089588;28;20965;-78
2021/03/08 07:13:49;;;;;;;44.93;27.10;;;;;;;8.71;51.66;94890.28;5085260;28;20440;-79
2021/03/08 07:16:16;;;;;;;47.57;28.40;;;;;;;8.65;52.24;94896.78;5088019;28;20453;-79
2021/03/08 07:18:44;;;;;;;49.57;28.43;;;;;;;8.71;52.07;94895.50;5078796;28;20539;-79
2021/03/08 07:21:15;;;;;;;45.67;27.87;;;;;;;8.88;52.32;94897.63;5077339;28;20488;-79
2021/03/08 07:23:43;;;;;;;53.73;29.83;;;;;;;9.11;51.94;94894.03;5085355;28;20453;-78
2021/03/08 07:26:11;;;;;;;47.63;27.67;;;;;;;8.88;50.86;94895.00;5082105;28;20441;-79
2021/03/08 07:28:38;;;;;;;49.53;27.80;;;;;;;9.15;51.05;94885.00;5091538;28;20452;-79
2021/03/08 07:31:04;;;;;;;48.30;28.30;;;;;;;9.28;50.38;94883.09;5096049;28;20452;-79
2021/03/08 07:33:31;;;;;;;46.10;28.57;;;;;;;9.48;50.39;94885.88;5060750;28;20483;-79
2021/03/08 07:35:58;;;;;;;50.70;29.27;;;;;;;9.55;49.91;94887.06;5090908;28;20447;-79
2021/03/08 07:38:32;;;;;;;50.57;29.87;;;;;;;9.65;50.32;94890.59;5096034;28;20432;-79
2021/03/08 07:41:10;;;;;;;49.37;27.93;;;;;;;9.72;50.47;94894.38;5096292;28;20508;-79
2021/03/08 07:43:37;;;;;;;44.07;26.90;;;;;;;9.56;50.16;94896.59;5088619;28;20507;-79
2021/03/08 07:46:03;;;;;;;49.43;26.20;;;;;;;9.55;50.48;94887.06;5081403;28;20441;-79
2021/03/08 07:48:30;;;;;;;47.13;25.87;;;;;;;9.79;50.19;94877.19;5060517;28;20956;-78
2021/03/08 07:50:56;;;;;;;47.70;25.80;;;;;;;10.07;49.31;94875.72;5096227;28;20448;-79
2021/03/08 07:53:27;;;;;;;38.40;21.37;;;;;;;9.81;49.20;94882.28;5092268;28;20458;-79
2021/03/08 07:55:54;;;;;;;37.00;20.10;;;;;;;9.76;48.71;94863.50;5089154;28;20460;-79
2021/03/08 07:58:20;;;;;;;29.50;21.57;;;;;;;9.91;49.40;94867.50;5024543;28;20446;-79
2021/03/08 08:00:47;;;;;;;35.70;24.17;;;;;;;10.10;50.15;94869.41;5086721;28;20448;-79
2021/03/08 08:03:15;;;;;;;36.43;24.00;;;;;;;10.27;49.38;94855.75;5095721;28;20827;-79
2021/03/08 08:05:42;;;;;;;37.67;23.63;;;;;;;9.79;49.68;94861.44;5095701;28;20483;-79
2021/03/08 08:08:09;;;;;;;32.30;21.53;;;;;;;9.36;50.07;94856.28;5095564;28;20932;-79
2021/03/08 08:10:38;;;;;;;35.50;22.10;;;;;;;9.39;50.49;94855.19;5095215;28;20442;-79
2021/03/08 08:13:05;;;;;;;44.67;23.30;;;;;;;9.50;50.54;94863.00;5095397;28;20437;-79
2021/03/08 08:15:33;;;;;;;37.07;20.30;;;;;;;9.26;50.94;94848.34;5095455;28;20449;-78
2021/03/08 08:18:00;;;;;;;41.43;24.53;;;;;;;9.18;50.70;94844.66;5095249;28;20453;-79
2021/03/08 08:20:29;;;;;;;43.83;22.60;;;;;;;9.21;50.65;94855.69;5095013;28;20466;-80
2021/03/08 08:22:59;;;;;;;43.53;22.40;;;;;;;9.16;51.30;94859.66;5095257;28;21025;-79
2021/03/08 08:25:27;;;;;;;34.13;19.90;;;;;;;9.28;51.02;94854.28;5094581;28;20439;-79
2021/03/08 08:27:54;;;;;;;32.87;20.27;;;;;;;9.44;51.31;94850.41;5094823;28;20507;-79
2021/03/08 08:30:24;;;;;;;39.33;22.37;;;;;;;9.70;50.98;94869.25;5042626;28;20537;-78
2021/03/08 08:32:53;;;;;;;39.00;23.40;;;;;;;9.74;49.85;94849.69;5095054;28;20475;-79
2021/03/08 08:35:21;;;;;;;31.97;20.00;;;;;;;9.34;50.85;94850.31;5094522;28;20452;-79
2021/03/08 08:38:25;;;;;;;43.40;20.20;;;;;;;9.52;51.59;94840.97;5042847;28;20452;-79
2021/03/08 08:41:16;;;;;;;41.00;21.63;;;;;;;9.45;52.61;94831.94;5012708;28;20439;-78
2021/03/08 08:43:44;;;;;;;32.80;20.70;;;;;;;9.54;51.78;94836.47;5012659;28;20531;-78
2021/03/08 08:46:26;;;;;;;32.30;18.87;;;;;;;9.40;51.72;94822.81;4979910;28;20449;-78
2021/03/08 08:49:03;;;;;;;34.30;19.87;;;;;;;9.43;51.73;94833.88;4954004;29;20466;-78
2021/03/08 08:51:51;;;;;;;29.77;19.47;;;;;;;9.76;51.21;94827.66;4954713;29;20440;-78
2021/03/08 08:54:52;;;;;;;32.97;21.08;;;;;;;9.80;51.23;94825.59;4952863;29;20956;-78
2021/03/08 08:57:20;;;;;;;34.67;19.10;;;;;;;9.69;50.22;94810.78;4934884;29;20637;-79
2021/03/08 09:00:15;;;;;;;32.23;19.07;;;;;;;9.44;50.42;94824.22;4935174;29;20538;-79
2021/03/08 09:02:41;;;;;;;32.93;20.37;;;;;;;9.68;50.96;94821.38;4935231;29;20477;-79
2021/03/08 09:05:49;;;;;;;38.40;21.70;;;;;;;9.59;51.15;94818.56;4935065;29;20445;-79
2021/03/08 09:08:32;;;;;;;31.90;19.43;;;;;;;9.73;50.96;94819.22;4896828;29;20628;-78
2021/03/08 09:11:00;;;;;;;26.87;19.33;;;;;;;9.73;51.16;94817.41;4897053;29;20445;-79
2021/03/08 09:13:28;;;;;;;28.40;17.30;;;;;;;9.83;50.36;94815.72;4897000;29;20966;-78
2021/03/08 09:15:56;;;;;;;31.40;17.67;;;;;;;9.66;50.29;94804.97;4896720;29;20438;-79
2021/03/08 09:18:34;;;;;;;36.80;20.20;;;;;;;9.61;51.62;94808.78;4929511;29;20459;-79
2021/03/08 09:21:23;;;;;;;30.30;20.77;;;;;;;9.78;51.53;94796.91;4934378;29;20820;-79
2021/03/08 09:23:50;;;;;;;31.03;17.43;;;;;;;9.39;52.11;94792.34;4934855;29;20457;-79
2021/03/08 09:26:16;;;;;;;30.63;18.67;;;;;;;9.59;51.79;94808.09;4979940;28;20463;-79
2021/03/08 09:28:50;;;;;;;32.13;20.90;;;;;;;9.49;52.39;94793.25;5012000;28;20496;-79
2021/03/08 09:31:22;;;;;;;33.80;18.23;;;;;;;9.52;51.78;94788.56;5011726;28;20863;-80
2021/03/08 09:33:49;;;;;;;31.40;18.80;;;;;;;9.63;52.11;94792.94;5011931;28;20476;-79
2021/03/08 09:36:15;;;;;;;29.63;21.07;;;;;;;9.76;52.23;94788.34;5011734;28;20451;-80
2021/03/08 09:38:42;;;;;;;32.97;19.50;;;;;;;9.94;51.08;94788.59;5011832;28;20454;-79
2021/03/08 09:41:09;;;;;;;36.03;19.03;;;;;;;10.07;50.70;94775.28;5011807;28;20516;-79
2021/03/08 09:43:38;;;;;;;33.50;19.87;;;;;;;10.31;50.42;94770.63;5033417;28;20459;-80
2021/03/08 09:46:05;;;;;;;30.07;20.67;;;;;;;10.35;50.50;94766.75;5073257;28;20504;-80
2021/03/08 09:48:36;;;;;;;34.43;21.20;;;;;;;10.36;51.15;94768.41;5072972;28;20454;-81
2021/03/08 09:51:08;;;;;;;39.10;20.30;;;;;;;10.38;50.08;94761.25;5023484;28;20492;-81
2021/03/08 09:53:36;;;;;;;30.10;19.40;;;;;;;10.53;50.27;94765.19;5040023;28;20457;-81
2021/03/08 09:56:07;;;;;;;28.40;18.20;;;;;;;10.52;49.85;94763.53;5073590;28;20506;-81
2021/03/08 09:58:34;;;;;;;32.63;21.20;;;;;;;10.61;50.40;94755.81;5073709;28;20498;-81
2021/03/08 10:01:11;;;;;;;33.97;19.57;;;;;;;10.47;49.83;94755.22;5073429;28;20451;-81
2021/03/08 10:03:39;;;;;;;31.87;18.80;;;;;;;10.52;48.46;94755.66;5073527;28;20443;-81
2021/03/08 10:06:05;;;;;;;33.73;18.27;;;;;;;10.42;49.51;94741.69;5073777;28;20458;-82
2021/03/08 10:08:32;;;;;;;41.73;20.53;;;;;;;10.09;49.96;94745.34;5073538;28;20782;-81
2021/03/08 10:10:59;;;;;;;27.30;19.43;;;;;;;10.11;50.33;94738.19;5073636;28;20449;-81
2021/03/08 10:13:26;;;;;;;35.10;17.87;;;;;;;10.07;49.80;94747.28;5073665;28;20437;-81
2021/03/08 10:15:55;;;;;;;37.53;19.30;;;;;;;10.10;50.29;94741.78;5078044;28;20507;-80
2021/03/08 10:18:24;;;;;;;36.57;19.37;;;;;;;10.15;50.58;94730.91;5093730;28;20794;-80
2021/03/08 10:20:54;;;;;;;30.10;18.73;;;;;;;10.02;50.79;94733.72;5093387;28;20453;-80
2021/03/08 10:23:25;;;;;;;30.27;17.90;;;;;;;10.27;50.03;94737.75;5094364;28;20448;-81
2021/03/08 10:25:54;;;;;;;31.50;17.70;;;;;;;10.17;50.08;94737.69;5094541;28;20525;-78
2021/03/08 10:28:20;;;;;;;29.77;18.70;;;;;;;10.19;49.83;94724.44;5092215;28;21018;-79
2021/03/08 10:30:48;;;;;;;31.90;19.90;;;;;;;10.31;49.32;94714.72;5083579;28;20499;-79
2021/03/08 10:33:18;;;;;;;26.93;16.90;;;;;;;10.37;50.59;94729.91;5088132;28;20516;-81
2021/03/08 10:35:46;;;;;;;29.20;18.40;;;;;;;10.53;49.76;94720.59;5076906;28;20446;-80
2021/03/08 10:38:15;;;;;;;32.90;18.10;;;;;;;10.65;50.16;94713.41;5091809;28;20492;-79
2021/03/08 10:40:42;;;;;;;29.13;18.83;;;;;;;10.84;46.31;94718.72;5091589;28;20813;-79
2021/03/08 10:43:10;;;;;;;41.10;19.00;;;;;;;11.02;46.50;94712.81;5092427;28;20481;-80
2021/03/08 10:45:37;;;;;;;33.30;18.57;;;;;;;11.15;45.40;94708.94;5092534;28;20797;-79
2021/03/08 10:48:08;;;;;;;35.83;19.13;;;;;;;11.20;45.55;94711.13;5092572;28;20511;-79
2021/03/08 10:50:44;;;;;;;35.63;17.47;;;;;;;10.95;47.64;94698.53;5092471;28;20504;-79
2021/03/08 10:53:12;;;;;;;26.10;17.30;;;;;;;11.08;46.38;94697.31;5092018;28;20459;-79
2021/03/08 10:55:40;;;;;;;24.63;16.77;;;;;;;11.20;45.77;94694.56;5092699;28;20439;-80
2021/03/08 10:58:07;;;;;;;36.13;17.30;;;;;;;11.37;45.80;94694.69;5090059;28;20462;-80
2021/03/08 11:00:35;;;;;;;42.17;21.77;;;;;;;11.42;45.73;94681.97;5087316;28;20443;-79
2021/03/08 11:03:01;;;;;;;34.00;18.70;;;;;;;11.44;44.99;94671.31;5076247;28;20987;-79
2021/03/08 11:05:29;;;;;;;32.23;18.10;;;;;;;11.54;45.24;94674.75;5076209;28;20444;-80
2021/03/08 11:07:56;;;;;;;38.57;19.70;;;;;;;11.61;43.85;94669.78;5075530;28;21038;-81
2021/03/08 11:10:33;;;;;;;33.67;19.67;;;;;;;11.51;44.87;94661.88;5075707;28;20449;-80
2021/03/08 11:13:03;;;;;;;33.20;19.80;;;;;;;11.60;43.98;94663.69;5075642;28;20519;-80
2021/03/08 11:15:30;;;;;;;34.93;20.20;;;;;;;11.60;44.02;94655.81;5076760;28;20486;-79
2021/03/08 11:17:56;;;;;;;41.17;19.20;;;;;;;11.66;44.08;94643.88;5083483;28;20551;-80
2021/03/08 11:20:26;;;;;;;40.00;22.47;;;;;;;11.58;43.72;94644.59;5096243;28;21239;-80
2021/03/08 11:22:58;;;;;;;30.87;18.87;;;;;;;11.56;43.96;94643.88;5096246;28;20490;-80
2021/03/08 11:25:35;;;;;;;28.43;20.00;;;;;;;11.57;43.86;94635.06;5094971;28;20447;-80
2021/03/08 11:28:05;;;;;;;46.03;21.80;;;;;;;11.49;44.64;94622.63;5082453;28;20836;-80
2021/03/08 11:30:33;;;;;;;33.27;20.30;;;;;;;11.60;43.28;94624.25;5093588;28;20448;-80
2021/03/08 11:33:00;;;;;;;32.17;20.00;;;;;;;11.56;43.70;94611.53;5095710;28;20467;-80
2021/03/08 11:35:29;;;;;;;33.87;18.33;;;;;;;11.69;44.80;94612.88;5095661;28;20439;-80
2021/03/08 11:37:58;;;;;;;25.47;15.70;;;;;;;11.77;43.51;94605.09;5095234;28;20439;-80